Aviation Digital Data Service (ADDS)

Output produced by METARs form (1305 UTC 16 August 2022)
found at http://aviationweather.gov/metar/data/
 
METAR text: EYKA 161250Z VRB05KT CAVOK 29/19 Q1012
Conditions at: EYKA (KAUNAS , LT) observed 1250 UTC 16 August 2022
Temperature: 29.0°C (84°F)
Dewpoint: 19.0°C (66°F) [RH = 55%]
Pressure (altimeter): 29.88 inches Hg (1012.0 mb)
Winds: variable direction winds at 6 MPH (5 knots; 2.6 m/s)
Visibility: 6 or more miles (10+ km)
Ceiling: ceiling and visibility are OK
Clouds: unknown
Weather: no significant weather observed at this time

METAR text: EYKA 161220Z VRB08KT CAVOK 29/19 Q1012
Conditions at: EYKA (KAUNAS , LT) observed 1220 UTC 16 August 2022
Temperature: 29.0°C (84°F)
Dewpoint: 19.0°C (66°F) [RH = 55%]
Pressure (altimeter): 29.88 inches Hg (1012.0 mb)
Winds: variable direction winds at 9 MPH (8 knots; 4.1 m/s)
Visibility: 6 or more miles (10+ km)
Ceiling: ceiling and visibility are OK
Clouds: unknown
Weather: no significant weather observed at this time

METAR text: EYKA 161150Z VRB06KT CAVOK 28/18 Q1012
Conditions at: EYKA (KAUNAS , LT) observed 1150 UTC 16 August 2022
Temperature: 28.0°C (82°F)
Dewpoint: 18.0°C (64°F) [RH = 55%]
Pressure (altimeter): 29.88 inches Hg (1012.0 mb)
Winds: variable direction winds at 7 MPH (6 knots; 3.1 m/s)
Visibility: 6 or more miles (10+ km)
Ceiling: ceiling and visibility are OK
Clouds: unknown
Weather: no significant weather observed at this time

METAR text: EYKA 161120Z VRB10KT CAVOK 29/18 Q1012
Conditions at: EYKA (KAUNAS , LT) observed 1120 UTC 16 August 2022
Temperature: 29.0°C (84°F)
Dewpoint: 18.0°C (64°F) [RH = 52%]
Pressure (altimeter): 29.88 inches Hg (1012.0 mb)
Winds: variable direction winds at 12 MPH (10 knots; 5.1 m/s)
Visibility: 6 or more miles (10+ km)
Ceiling: ceiling and visibility are OK
Clouds: unknown
Weather: no significant weather observed at this time

Forecast for: EYKA (KAUNAS , LT)
Text: TAF EYKA 161100Z 1612/1712 VRB05KT 9000 NSC
Forecast period: 1200 UTC 16 August 2022 to 1200 UTC 17 August 2022
Forecast type: FROM: standard forecast or significant change
Winds: variable direction winds at 6 MPH (5 knots; 2.6 m/s)
Visibility: 6 miles (9 km)
Ceiling: unknown
Clouds: missing
Weather: no significant weather forecast for this period
Text: TEMPO 1612/1618 12018KT 5000 TSRA BKN035CB
Forecast period: 1200 to 1800 UTC 16 August 2022
Forecast type: TEMPORARY: The following changes expected for less than half the time period
Winds: from the ESE (120 degrees) at 21 MPH (18 knots; 9.3 m/s)
Visibility: 3 miles (5 km)
Ceiling: 3500 feet AGL
Clouds: broken clouds at 3500 feet AGL
Weather: TSRA  (rain associated with thunderstorm(s))
Text: TEMPO 1618/1624 SHRA BKN035CB
Forecast period: 1800 UTC 16 August 2022 to 0000 UTC 17 August 2022
Forecast type: TEMPORARY: The following changes expected for less than half the time period
Visibility: missing
Ceiling: 3500 feet AGL
Clouds: broken clouds at 3500 feet AGL
Weather: SHRA  (rain showers)